sensor_id;sensor_type;location;lat;lon;timestamp;P1;durP1;ratioP1;P2;durP2;ratioP2
26191;SDS011;13935;55.672;37.764;2023-05-19T00:00:50;10.88;;;7.88;;
26191;SDS011;13935;55.672;37.764;2023-05-19T00:01:52;10.63;;;8.73;;
26191;SDS011;13935;55.672;37.764;2023-05-19T00:02:55;10.70;;;8.63;;
26191;SDS011;13935;55.672;37.764;2023-05-19T00:03:58;9.10;;;8.15;;
26191;SDS011;13935;55.672;37.764;2023-05-19T00:05:03;9.80;;;7.47;;
26191;SDS011;13935;55.672;37.764;2023-05-19T00:06:06;11.93;;;8.05;;
26191;SDS011;13935;55.672;37.764;2023-05-19T00:07:12;10.63;;;7.80;;
26191;SDS011;13935;55.672;37.764;2023-05-19T00:08:18;9.30;;;7.80;;
26191;SDS011;13935;55.672;37.764;2023-05-19T00:09:21;11.15;;;7.78;;
26191;SDS011;13935;55.672;37.764;2023-05-19T00:10:23;10.75;;;7.97;;
26191;SDS011;13935;55.672;37.764;2023-05-19T00:11:28;10.77;;;7.68;;
26191;SDS011;13935;55.672;37.764;2023-05-19T00:12:31;10.35;;;7.88;;
26191;SDS011;13935;55.672;37.764;2023-05-19T00:13:33;9.45;;;7.35;;
26191;SDS011;13935;55.672;37.764;2023-05-19T00:14:35;9.73;;;7.22;;
26191;SDS011;13935;55.672;37.764;2023-05-19T00:15:37;8.40;;;6.78;;
26191;SDS011;13935;55.672;37.764;2023-05-19T00:16:40;8.90;;;7.38;;
26191;SDS011;13935;55.672;37.764;2023-05-19T00:17:43;11.45;;;8.05;;
26191;SDS011;13935;55.672;37.764;2023-05-19T00:18:45;8.15;;;6.63;;
26191;SDS011;13935;55.672;37.764;2023-05-19T00:19:48;8.00;;;6.63;;
26191;SDS011;13935;55.672;37.764;2023-05-19T00:20:50;9.63;;;7.18;;
26191;SDS011;13935;55.672;37.764;2023-05-19T00:21:53;10.32;;;7.13;;
26191;SDS011;13935;55.672;37.764;2023-05-19T00:22:56;10.00;;;6.43;;
26191;SDS011;13935;55.672;37.764;2023-05-19T00:23:58;12.75;;;6.82;;
26191;SDS011;13935;55.672;37.764;2023-05-19T00:25:00;8.75;;;6.78;;
26191;SDS011;13935;55.672;37.764;2023-05-19T00:26:02;8.57;;;6.40;;
26191;SDS011;13935;55.672;37.764;2023-05-19T00:27:04;8.02;;;6.43;;
26191;SDS011;13935;55.672;37.764;2023-05-19T00:28:07;8.05;;;6.60;;
26191;SDS011;13935;55.672;37.764;2023-05-19T00:29:09;9.80;;;7.07;;
26191;SDS011;13935;55.672;37.764;2023-05-19T00:30:11;7.78;;;6.32;;
26191;SDS011;13935;55.672;37.764;2023-05-19T00:31:14;9.05;;;6.30;;
26191;SDS011;13935;55.672;37.764;2023-05-19T00:32:16;9.52;;;5.85;;
26191;SDS011;13935;55.672;37.764;2023-05-19T00:33:18;8.23;;;6.50;;
26191;SDS011;13935;55.672;37.764;2023-05-19T00:34:20;6.93;;;6.10;;
26191;SDS011;13935;55.672;37.764;2023-05-19T00:35:22;7.93;;;5.88;;
26191;SDS011;13935;55.672;37.764;2023-05-19T00:36:25;7.55;;;5.72;;
26191;SDS011;13935;55.672;37.764;2023-05-19T00:37:27;7.30;;;5.75;;
26191;SDS011;13935;55.672;37.764;2023-05-19T00:38:30;6.78;;;5.63;;
26191;SDS011;13935;55.672;37.764;2023-05-19T00:39:33;7.68;;;5.40;;
26191;SDS011;13935;55.672;37.764;2023-05-19T00:40:35;6.47;;;4.82;;
26191;SDS011;13935;55.672;37.764;2023-05-19T00:41:37;6.88;;;4.90;;
26191;SDS011;13935;55.672;37.764;2023-05-19T00:42:43;7.05;;;5.07;;
26191;SDS011;13935;55.672;37.764;2023-05-19T00:43:45;7.43;;;5.10;;
26191;SDS011;13935;55.672;37.764;2023-05-19T00:44:48;6.10;;;4.82;;
26191;SDS011;13935;55.672;37.764;2023-05-19T00:45:50;6.65;;;5.03;;
26191;SDS011;13935;55.672;37.764;2023-05-19T00:46:52;6.07;;;4.38;;
26191;SDS011;13935;55.672;37.764;2023-05-19T00:47:54;8.27;;;4.97;;
26191;SDS011;13935;55.672;37.764;2023-05-19T00:48:56;6.45;;;4.68;;
26191;SDS011;13935;55.672;37.764;2023-05-19T00:50:00;7.10;;;4.70;;
26191;SDS011;13935;55.672;37.764;2023-05-19T00:51:02;7.65;;;5.20;;
26191;SDS011;13935;55.672;37.764;2023-05-19T00:52:07;5.38;;;4.25;;
26191;SDS011;13935;55.672;37.764;2023-05-19T00:53:10;5.13;;;3.85;;
26191;SDS011;13935;55.672;37.764;2023-05-19T00:54:14;5.82;;;4.20;;
26191;SDS011;13935;55.672;37.764;2023-05-19T00:55:16;9.02;;;4.05;;
26191;SDS011;13935;55.672;37.764;2023-05-19T00:56:19;5.75;;;3.88;;
26191;SDS011;13935;55.672;37.764;2023-05-19T00:57:22;5.60;;;3.55;;
26191;SDS011;13935;55.672;37.764;2023-05-19T00:58:25;7.00;;;4.13;;
26191;SDS011;13935;55.672;37.764;2023-05-19T00:59:33;4.45;;;3.28;;
26191;SDS011;13935;55.672;37.764;2023-05-19T01:00:35;4.15;;;3.00;;
26191;SDS011;13935;55.672;37.764;2023-05-19T01:01:40;5.82;;;3.47;;
26191;SDS011;13935;55.672;37.764;2023-05-19T01:02:44;4.50;;;3.47;;
26191;SDS011;13935;55.672;37.764;2023-05-19T01:03:47;5.97;;;3.20;;
26191;SDS011;13935;55.672;37.764;2023-05-19T01:04:52;4.53;;;3.25;;
26191;SDS011;13935;55.672;37.764;2023-05-19T01:05:55;5.10;;;3.35;;
26191;SDS011;13935;55.672;37.764;2023-05-19T01:08:58;5.47;;;3.95;;
26191;SDS011;13935;55.672;37.764;2023-05-19T01:10:02;6.05;;;3.40;;
26191;SDS011;13935;55.672;37.764;2023-05-19T01:11:08;6.50;;;3.55;;
26191;SDS011;13935;55.672;37.764;2023-05-19T01:12:12;5.43;;;3.60;;
26191;SDS011;13935;55.672;37.764;2023-05-19T01:13:17;6.03;;;3.60;;
26191;SDS011;13935;55.672;37.764;2023-05-19T01:14:19;4.88;;;3.28;;
26191;SDS011;13935;55.672;37.764;2023-05-19T01:15:22;3.90;;;2.65;;
26191;SDS011;13935;55.672;37.764;2023-05-19T01:16:32;4.25;;;2.92;;
26191;SDS011;13935;55.672;37.764;2023-05-19T01:37:45;3.53;;;1.92;;
26191;SDS011;13935;55.672;37.764;2023-05-19T01:38:51;5.57;;;2.92;;
26191;SDS011;13935;55.672;37.764;2023-05-19T01:39:59;4.80;;;2.65;;
26191;SDS011;13935;55.672;37.764;2023-05-19T01:41:12;4.47;;;2.60;;
26191;SDS011;13935;55.672;37.764;2023-05-19T01:42:23;3.08;;;1.90;;
26191;SDS011;13935;55.672;37.764;2023-05-19T01:47:27;5.65;;;1.92;;
26191;SDS011;13935;55.672;37.764;2023-05-19T03:30:20;8.32;;;4.07;;
26191;SDS011;13935;55.672;37.764;2023-05-19T03:31:46;7.50;;;4.15;;
26191;SDS011;13935;55.672;37.764;2023-05-19T03:32:51;9.25;;;4.05;;
26191;SDS011;13935;55.672;37.764;2023-05-19T03:36:42;5.68;;;3.70;;
26191;SDS011;13935;55.672;37.764;2023-05-19T03:37:51;6.07;;;4.00;;
26191;SDS011;13935;55.672;37.764;2023-05-19T03:40:27;8.13;;;4.22;;
26191;SDS011;13935;55.672;37.764;2023-05-19T03:41:39;8.25;;;4.60;;
26191;SDS011;13935;55.672;37.764;2023-05-19T03:42:52;6.57;;;3.80;;
26191;SDS011;13935;55.672;37.764;2023-05-19T03:44:02;7.30;;;3.80;;
26191;SDS011;13935;55.672;37.764;2023-05-19T03:45:07;8.07;;;5.00;;
26191;SDS011;13935;55.672;37.764;2023-05-19T03:46:23;6.40;;;4.28;;
26191;SDS011;13935;55.672;37.764;2023-05-19T03:47:36;8.73;;;4.35;;
26191;SDS011;13935;55.672;37.764;2023-05-19T03:52:54;8.15;;;3.83;;
26191;SDS011;13935;55.672;37.764;2023-05-19T03:56:28;7.45;;;3.95;;
26191;SDS011;13935;55.672;37.764;2023-05-19T03:59:21;8.95;;;4.03;;
26191;SDS011;13935;55.672;37.764;2023-05-19T04:00:26;8.32;;;4.63;;
26191;SDS011;13935;55.672;37.764;2023-05-19T04:01:30;8.02;;;4.40;;
26191;SDS011;13935;55.672;37.764;2023-05-19T04:02:37;10.43;;;4.53;;
26191;SDS011;13935;55.672;37.764;2023-05-19T04:03:49;8.35;;;4.43;;
26191;SDS011;13935;55.672;37.764;2023-05-19T04:04:53;6.85;;;4.43;;
26191;SDS011;13935;55.672;37.764;2023-05-19T04:06:04;7.68;;;4.10;;
26191;SDS011;13935;55.672;37.764;2023-05-19T05:32:43;15.05;;;7.78;;
26191;SDS011;13935;55.672;37.764;2023-05-19T05:39:33;12.63;;;7.63;;
26191;SDS011;13935;55.672;37.764;2023-05-19T05:40:35;13.82;;;7.20;;
26191;SDS011;13935;55.672;37.764;2023-05-19T05:41:39;10.10;;;7.30;;
26191;SDS011;13935;55.672;37.764;2023-05-19T05:42:47;13.27;;;7.90;;
26191;SDS011;13935;55.672;37.764;2023-05-19T05:43:52;13.23;;;9.30;;
26191;SDS011;13935;55.672;37.764;2023-05-19T05:44:57;13.43;;;7.78;;
26191;SDS011;13935;55.672;37.764;2023-05-19T05:46:07;12.07;;;8.27;;
26191;SDS011;13935;55.672;37.764;2023-05-19T05:47:10;13.00;;;7.88;;
26191;SDS011;13935;55.672;37.764;2023-05-19T05:48:19;12.57;;;8.05;;
26191;SDS011;13935;55.672;37.764;2023-05-19T05:49:26;13.40;;;7.85;;
26191;SDS011;13935;55.672;37.764;2023-05-19T05:50:37;14.38;;;7.97;;
26191;SDS011;13935;55.672;37.764;2023-05-19T05:51:53;13.55;;;8.07;;
26191;SDS011;13935;55.672;37.764;2023-05-19T05:53:16;12.60;;;8.15;;
26191;SDS011;13935;55.672;37.764;2023-05-19T05:54:23;13.40;;;8.60;;
26191;SDS011;13935;55.672;37.764;2023-05-19T05:55:26;13.63;;;8.70;;
26191;SDS011;13935;55.672;37.764;2023-05-19T05:56:29;12.63;;;8.50;;
26191;SDS011;13935;55.672;37.764;2023-05-19T05:57:37;14.82;;;9.00;;
26191;SDS011;13935;55.672;37.764;2023-05-19T05:58:46;12.57;;;8.88;;
26191;SDS011;13935;55.672;37.764;2023-05-19T05:59:49;13.77;;;8.50;;
26191;SDS011;13935;55.672;37.764;2023-05-19T06:00:51;10.85;;;8.25;;
26191;SDS011;13935;55.672;37.764;2023-05-19T06:02:01;14.02;;;9.50;;
26191;SDS011;13935;55.672;37.764;2023-05-19T06:03:06;12.80;;;9.57;;
26191;SDS011;13935;55.672;37.764;2023-05-19T06:04:10;12.50;;;9.18;;
26191;SDS011;13935;55.672;37.764;2023-05-19T06:05:12;15.88;;;9.25;;
26191;SDS011;13935;55.672;37.764;2023-05-19T06:06:16;19.38;;;9.68;;
26191;SDS011;13935;55.672;37.764;2023-05-19T06:07:21;12.70;;;9.32;;
26191;SDS011;13935;55.672;37.764;2023-05-19T06:08:32;15.00;;;10.18;;
26191;SDS011;13935;55.672;37.764;2023-05-19T06:09:35;13.77;;;9.68;;
26191;SDS011;13935;55.672;37.764;2023-05-19T06:10:40;12.98;;;9.07;;
26191;SDS011;13935;55.672;37.764;2023-05-19T06:11:45;12.95;;;9.23;;
26191;SDS011;13935;55.672;37.764;2023-05-19T06:12:50;14.63;;;9.43;;
26191;SDS011;13935;55.672;37.764;2023-05-19T06:13:54;13.80;;;9.77;;
26191;SDS011;13935;55.672;37.764;2023-05-19T06:15:16;12.05;;;9.18;;
26191;SDS011;13935;55.672;37.764;2023-05-19T06:16:36;21.75;;;12.93;;
26191;SDS011;13935;55.672;37.764;2023-05-19T06:17:39;14.50;;;9.20;;
26191;SDS011;13935;55.672;37.764;2023-05-19T06:18:42;13.63;;;9.35;;
26191;SDS011;13935;55.672;37.764;2023-05-19T06:19:44;14.85;;;9.40;;
26191;SDS011;13935;55.672;37.764;2023-05-19T06:20:47;13.15;;;9.73;;
26191;SDS011;13935;55.672;37.764;2023-05-19T06:21:55;12.13;;;9.35;;
26191;SDS011;13935;55.672;37.764;2023-05-19T06:23:01;14.00;;;9.70;;
26191;SDS011;13935;55.672;37.764;2023-05-19T06:24:04;16.23;;;10.15;;
26191;SDS011;13935;55.672;37.764;2023-05-19T06:25:06;20.02;;;15.18;;
26191;SDS011;13935;55.672;37.764;2023-05-19T06:26:10;12.32;;;10.02;;
26191;SDS011;13935;55.672;37.764;2023-05-19T06:27:12;13.48;;;10.15;;
26191;SDS011;13935;55.672;37.764;2023-05-19T06:28:14;13.32;;;10.00;;
26191;SDS011;13935;55.672;37.764;2023-05-19T06:29:17;15.93;;;10.73;;
26191;SDS011;13935;55.672;37.764;2023-05-19T06:30:21;17.40;;;10.45;;
26191;SDS011;13935;55.672;37.764;2023-05-19T06:31:32;14.70;;;10.02;;
26191;SDS011;13935;55.672;37.764;2023-05-19T06:32:44;13.95;;;10.18;;
26191;SDS011;13935;55.672;37.764;2023-05-19T06:33:48;15.35;;;11.27;;
26191;SDS011;13935;55.672;37.764;2023-05-19T06:34:50;14.70;;;10.63;;
26191;SDS011;13935;55.672;37.764;2023-05-19T06:35:54;14.05;;;11.32;;
26191;SDS011;13935;55.672;37.764;2023-05-19T06:36:58;16.33;;;10.82;;
26191;SDS011;13935;55.672;37.764;2023-05-19T06:38:00;16.25;;;10.45;;
26191;SDS011;13935;55.672;37.764;2023-05-19T06:39:03;16.42;;;10.80;;
26191;SDS011;13935;55.672;37.764;2023-05-19T06:40:06;14.32;;;11.05;;
26191;SDS011;13935;55.672;37.764;2023-05-19T06:41:11;17.27;;;10.13;;
26191;SDS011;13935;55.672;37.764;2023-05-19T06:42:15;15.93;;;11.35;;
26191;SDS011;13935;55.672;37.764;2023-05-19T06:43:30;15.55;;;10.98;;
26191;SDS011;13935;55.672;37.764;2023-05-19T06:44:37;15.57;;;11.63;;
26191;SDS011;13935;55.672;37.764;2023-05-19T06:45:44;18.65;;;13.98;;
26191;SDS011;13935;55.672;37.764;2023-05-19T06:46:46;17.15;;;11.80;;
26191;SDS011;13935;55.672;37.764;2023-05-19T06:47:48;17.08;;;12.45;;
26191;SDS011;13935;55.672;37.764;2023-05-19T06:48:51;15.25;;;11.98;;
26191;SDS011;13935;55.672;37.764;2023-05-19T06:49:56;17.23;;;12.13;;
26191;SDS011;13935;55.672;37.764;2023-05-19T06:51:05;16.33;;;13.07;;
26191;SDS011;13935;55.672;37.764;2023-05-19T06:52:08;15.05;;;11.77;;
26191;SDS011;13935;55.672;37.764;2023-05-19T06:53:10;16.35;;;12.65;;
26191;SDS011;13935;55.672;37.764;2023-05-19T06:54:12;16.13;;;12.70;;
26191;SDS011;13935;55.672;37.764;2023-05-19T06:55:17;21.65;;;12.63;;
26191;SDS011;13935;55.672;37.764;2023-05-19T06:56:19;14.88;;;11.98;;
26191;SDS011;13935;55.672;37.764;2023-05-19T06:57:23;15.85;;;11.93;;
26191;SDS011;13935;55.672;37.764;2023-05-19T06:58:26;15.40;;;11.75;;
26191;SDS011;13935;55.672;37.764;2023-05-19T06:59:29;17.63;;;12.38;;
26191;SDS011;13935;55.672;37.764;2023-05-19T07:00:32;15.60;;;11.38;;
26191;SDS011;13935;55.672;37.764;2023-05-19T07:01:35;16.20;;;12.40;;
26191;SDS011;13935;55.672;37.764;2023-05-19T07:02:38;19.20;;;12.57;;
26191;SDS011;13935;55.672;37.764;2023-05-19T07:03:40;19.08;;;13.07;;
26191;SDS011;13935;55.672;37.764;2023-05-19T07:04:44;19.55;;;12.05;;
26191;SDS011;13935;55.672;37.764;2023-05-19T07:05:57;17.83;;;12.02;;
26191;SDS011;13935;55.672;37.764;2023-05-19T07:07:00;17.73;;;11.80;;
26191;SDS011;13935;55.672;37.764;2023-05-19T07:08:07;16.95;;;11.65;;
26191;SDS011;13935;55.672;37.764;2023-05-19T07:09:11;15.98;;;12.32;;
26191;SDS011;13935;55.672;37.764;2023-05-19T07:10:14;16.77;;;12.27;;
26191;SDS011;13935;55.672;37.764;2023-05-19T07:11:19;17.25;;;11.95;;
26191;SDS011;13935;55.672;37.764;2023-05-19T07:12:25;15.90;;;11.80;;
26191;SDS011;13935;55.672;37.764;2023-05-19T07:13:28;20.25;;;12.43;;
26191;SDS011;13935;55.672;37.764;2023-05-19T07:14:31;17.63;;;12.45;;
26191;SDS011;13935;55.672;37.764;2023-05-19T07:15:39;16.25;;;12.10;;
26191;SDS011;13935;55.672;37.764;2023-05-19T07:16:41;17.23;;;12.68;;
26191;SDS011;13935;55.672;37.764;2023-05-19T07:17:43;19.42;;;12.35;;
26191;SDS011;13935;55.672;37.764;2023-05-19T07:18:45;17.67;;;11.75;;
26191;SDS011;13935;55.672;37.764;2023-05-19T07:19:48;15.60;;;11.50;;
26191;SDS011;13935;55.672;37.764;2023-05-19T07:20:52;15.77;;;11.13;;
26191;SDS011;13935;55.672;37.764;2023-05-19T07:21:55;16.00;;;11.48;;
26191;SDS011;13935;55.672;37.764;2023-05-19T07:22:58;16.50;;;12.23;;
26191;SDS011;13935;55.672;37.764;2023-05-19T07:24:03;22.27;;;15.43;;
26191;SDS011;13935;55.672;37.764;2023-05-19T07:25:06;18.48;;;12.88;;
26191;SDS011;13935;55.672;37.764;2023-05-19T07:26:08;16.95;;;12.40;;
26191;SDS011;13935;55.672;37.764;2023-05-19T07:27:11;16.95;;;12.70;;
26191;SDS011;13935;55.672;37.764;2023-05-19T07:28:13;15.32;;;12.32;;
26191;SDS011;13935;55.672;37.764;2023-05-19T07:29:15;21.73;;;14.05;;
26191;SDS011;13935;55.672;37.764;2023-05-19T07:30:18;19.10;;;12.70;;
26191;SDS011;13935;55.672;37.764;2023-05-19T07:31:22;18.00;;;13.00;;
26191;SDS011;13935;55.672;37.764;2023-05-19T07:32:25;16.02;;;11.93;;
26191;SDS011;13935;55.672;37.764;2023-05-19T07:33:27;18.08;;;12.90;;
26191;SDS011;13935;55.672;37.764;2023-05-19T07:34:30;17.75;;;12.93;;
26191;SDS011;13935;55.672;37.764;2023-05-19T07:35:34;16.42;;;12.65;;
26191;SDS011;13935;55.672;37.764;2023-05-19T07:36:38;16.70;;;12.57;;
26191;SDS011;13935;55.672;37.764;2023-05-19T07:37:41;18.88;;;12.65;;
26191;SDS011;13935;55.672;37.764;2023-05-19T07:38:46;17.60;;;12.60;;
26191;SDS011;13935;55.672;37.764;2023-05-19T07:39:51;16.83;;;11.95;;
26191;SDS011;13935;55.672;37.764;2023-05-19T07:40:53;22.67;;;13.32;;
26191;SDS011;13935;55.672;37.764;2023-05-19T07:41:56;17.27;;;13.00;;
26191;SDS011;13935;55.672;37.764;2023-05-19T07:42:58;16.63;;;13.23;;
26191;SDS011;13935;55.672;37.764;2023-05-19T07:44:01;17.13;;;11.88;;
26191;SDS011;13935;55.672;37.764;2023-05-19T07:45:10;19.23;;;11.63;;
26191;SDS011;13935;55.672;37.764;2023-05-19T07:46:12;18.70;;;12.98;;
26191;SDS011;13935;55.672;37.764;2023-05-19T07:47:14;17.38;;;12.10;;
26191;SDS011;13935;55.672;37.764;2023-05-19T07:48:16;17.27;;;12.93;;
26191;SDS011;13935;55.672;37.764;2023-05-19T07:49:21;17.77;;;12.60;;
26191;SDS011;13935;55.672;37.764;2023-05-19T07:50:23;19.50;;;12.93;;
26191;SDS011;13935;55.672;37.764;2023-05-19T07:51:25;19.48;;;12.30;;
26191;SDS011;13935;55.672;37.764;2023-05-19T07:52:27;21.73;;;14.07;;
26191;SDS011;13935;55.672;37.764;2023-05-19T07:53:29;16.70;;;12.77;;
26191;SDS011;13935;55.672;37.764;2023-05-19T07:54:32;24.15;;;13.25;;
26191;SDS011;13935;55.672;37.764;2023-05-19T07:55:34;17.33;;;12.48;;
26191;SDS011;13935;55.672;37.764;2023-05-19T07:56:36;17.38;;;12.93;;
26191;SDS011;13935;55.672;37.764;2023-05-19T07:57:38;22.40;;;14.00;;
26191;SDS011;13935;55.672;37.764;2023-05-19T07:58:40;19.98;;;13.10;;
26191;SDS011;13935;55.672;37.764;2023-05-19T07:59:42;17.65;;;13.25;;
26191;SDS011;13935;55.672;37.764;2023-05-19T08:00:44;19.38;;;13.30;;
26191;SDS011;13935;55.672;37.764;2023-05-19T08:01:46;18.55;;;13.57;;
26191;SDS011;13935;55.672;37.764;2023-05-19T08:02:49;16.90;;;12.95;;
26191;SDS011;13935;55.672;37.764;2023-05-19T08:03:54;19.10;;;13.40;;
26191;SDS011;13935;55.672;37.764;2023-05-19T08:04:59;16.77;;;13.10;;
26191;SDS011;13935;55.672;37.764;2023-05-19T08:06:04;17.98;;;12.65;;
26191;SDS011;13935;55.672;37.764;2023-05-19T08:07:06;21.80;;;12.55;;
26191;SDS011;13935;55.672;37.764;2023-05-19T08:08:09;16.85;;;13.20;;
26191;SDS011;13935;55.672;37.764;2023-05-19T08:09:13;19.65;;;13.38;;
26191;SDS011;13935;55.672;37.764;2023-05-19T08:10:15;16.17;;;13.20;;
26191;SDS011;13935;55.672;37.764;2023-05-19T08:11:17;24.55;;;17.30;;
26191;SDS011;13935;55.672;37.764;2023-05-19T08:12:19;17.63;;;13.15;;
26191;SDS011;13935;55.672;37.764;2023-05-19T08:13:22;16.75;;;12.98;;
26191;SDS011;13935;55.672;37.764;2023-05-19T08:14:24;16.92;;;12.98;;
26191;SDS011;13935;55.672;37.764;2023-05-19T08:15:27;20.92;;;13.90;;
26191;SDS011;13935;55.672;37.764;2023-05-19T08:16:29;17.60;;;13.18;;
26191;SDS011;13935;55.672;37.764;2023-05-19T08:17:32;17.92;;;12.40;;
26191;SDS011;13935;55.672;37.764;2023-05-19T08:18:35;17.55;;;13.00;;
26191;SDS011;13935;55.672;37.764;2023-05-19T08:19:41;21.40;;;13.82;;
26191;SDS011;13935;55.672;37.764;2023-05-19T08:20:43;21.77;;;13.98;;
26191;SDS011;13935;55.672;37.764;2023-05-19T08:21:52;16.20;;;13.25;;
26191;SDS011;13935;55.672;37.764;2023-05-19T08:22:54;17.23;;;13.10;;
26191;SDS011;13935;55.672;37.764;2023-05-19T08:23:56;21.73;;;12.55;;
26191;SDS011;13935;55.672;37.764;2023-05-19T08:25:03;18.80;;;13.38;;
26191;SDS011;13935;55.672;37.764;2023-05-19T08:26:08;17.73;;;12.82;;
26191;SDS011;13935;55.672;37.764;2023-05-19T08:27:10;16.73;;;12.75;;
26191;SDS011;13935;55.672;37.764;2023-05-19T08:28:13;18.85;;;13.05;;
26191;SDS011;13935;55.672;37.764;2023-05-19T08:29:18;18.65;;;13.05;;
26191;SDS011;13935;55.672;37.764;2023-05-19T08:30:24;20.10;;;13.55;;
26191;SDS011;13935;55.672;37.764;2023-05-19T08:31:26;17.02;;;13.10;;
26191;SDS011;13935;55.672;37.764;2023-05-19T08:32:28;16.60;;;12.23;;
26191;SDS011;13935;55.672;37.764;2023-05-19T08:33:30;19.40;;;12.52;;
26191;SDS011;13935;55.672;37.764;2023-05-19T08:34:33;16.65;;;12.57;;
26191;SDS011;13935;55.672;37.764;2023-05-19T08:35:35;16.45;;;12.75;;
26191;SDS011;13935;55.672;37.764;2023-05-19T08:36:38;23.88;;;13.93;;
26191;SDS011;13935;55.672;37.764;2023-05-19T08:37:43;21.33;;;12.35;;
26191;SDS011;13935;55.672;37.764;2023-05-19T08:38:46;13.77;;;11.98;;
26191;SDS011;13935;55.672;37.764;2023-05-19T08:39:48;17.27;;;12.45;;
26191;SDS011;13935;55.672;37.764;2023-05-19T08:40:50;16.33;;;11.80;;
26191;SDS011;13935;55.672;37.764;2023-05-19T08:41:52;19.45;;;14.13;;
26191;SDS011;13935;55.672;37.764;2023-05-19T08:42:55;23.30;;;12.75;;
26191;SDS011;13935;55.672;37.764;2023-05-19T08:43:56;16.17;;;12.40;;
26191;SDS011;13935;55.672;37.764;2023-05-19T08:44:59;17.33;;;12.98;;
26191;SDS011;13935;55.672;37.764;2023-05-19T08:46:03;17.92;;;12.77;;
26191;SDS011;13935;55.672;37.764;2023-05-19T08:47:08;14.85;;;11.68;;
26191;SDS011;13935;55.672;37.764;2023-05-19T08:48:15;15.57;;;11.82;;
26191;SDS011;13935;55.672;37.764;2023-05-19T08:49:23;15.50;;;11.25;;
26191;SDS011;13935;55.672;37.764;2023-05-19T08:50:30;17.10;;;11.82;;
26191;SDS011;13935;55.672;37.764;2023-05-19T08:53:36;16.00;;;11.55;;
26191;SDS011;13935;55.672;37.764;2023-05-19T08:54:45;14.35;;;10.57;;
26191;SDS011;13935;55.672;37.764;2023-05-19T08:56:05;12.77;;;9.70;;
26191;SDS011;13935;55.672;37.764;2023-05-19T08:57:11;17.70;;;10.05;;
26191;SDS011;13935;55.672;37.764;2023-05-19T08:58:14;15.82;;;9.70;;
26191;SDS011;13935;55.672;37.764;2023-05-19T08:59:22;18.40;;;9.88;;
26191;SDS011;13935;55.672;37.764;2023-05-19T09:00:24;13.88;;;9.13;;
26191;SDS011;13935;55.672;37.764;2023-05-19T09:01:27;16.45;;;9.77;;
26191;SDS011;13935;55.672;37.764;2023-05-19T09:02:30;15.23;;;9.18;;
26191;SDS011;13935;55.672;37.764;2023-05-19T09:03:33;14.38;;;8.73;;
26191;SDS011;13935;55.672;37.764;2023-05-19T09:04:41;12.02;;;8.80;;
26191;SDS011;13935;55.672;37.764;2023-05-19T09:05:46;12.20;;;7.65;;
26191;SDS011;13935;55.672;37.764;2023-05-19T09:06:49;17.55;;;7.38;;
26191;SDS011;13935;55.672;37.764;2023-05-19T09:07:51;9.95;;;6.93;;
26191;SDS011;13935;55.672;37.764;2023-05-19T09:08:53;10.80;;;6.88;;
26191;SDS011;13935;55.672;37.764;2023-05-19T09:09:57;11.73;;;7.03;;
26191;SDS011;13935;55.672;37.764;2023-05-19T09:11:00;10.23;;;7.45;;
26191;SDS011;13935;55.672;37.764;2023-05-19T09:12:02;10.32;;;7.07;;
26191;SDS011;13935;55.672;37.764;2023-05-19T09:13:04;12.02;;;6.93;;
26191;SDS011;13935;55.672;37.764;2023-05-19T09:14:07;13.00;;;8.52;;
26191;SDS011;13935;55.672;37.764;2023-05-19T09:15:09;14.68;;;7.43;;
26191;SDS011;13935;55.672;37.764;2023-05-19T09:16:12;13.30;;;6.90;;
26191;SDS011;13935;55.672;37.764;2023-05-19T09:17:14;11.15;;;6.93;;
26191;SDS011;13935;55.672;37.764;2023-05-19T09:18:17;21.83;;;12.07;;
26191;SDS011;13935;55.672;37.764;2023-05-19T09:19:19;12.05;;;7.57;;
26191;SDS011;13935;55.672;37.764;2023-05-19T09:20:22;10.05;;;6.15;;
26191;SDS011;13935;55.672;37.764;2023-05-19T09:21:26;9.95;;;6.15;;
26191;SDS011;13935;55.672;37.764;2023-05-19T09:22:32;11.05;;;6.15;;
26191;SDS011;13935;55.672;37.764;2023-05-19T09:23:36;13.10;;;6.57;;
26191;SDS011;13935;55.672;37.764;2023-05-19T09:24:38;12.60;;;6.35;;
26191;SDS011;13935;55.672;37.764;2023-05-19T09:25:47;11.00;;;6.30;;
26191;SDS011;13935;55.672;37.764;2023-05-19T09:26:52;13.32;;;6.40;;
26191;SDS011;13935;55.672;37.764;2023-05-19T09:28:01;11.95;;;6.13;;
26191;SDS011;13935;55.672;37.764;2023-05-19T09:29:13;11.45;;;5.90;;
26191;SDS011;13935;55.672;37.764;2023-05-19T09:30:16;11.45;;;6.18;;
26191;SDS011;13935;55.672;37.764;2023-05-19T09:31:19;12.40;;;6.18;;
26191;SDS011;13935;55.672;37.764;2023-05-19T09:32:24;11.10;;;6.40;;
26191;SDS011;13935;55.672;37.764;2023-05-19T09:33:29;9.60;;;5.80;;
26191;SDS011;13935;55.672;37.764;2023-05-19T09:34:39;9.65;;;6.35;;
26191;SDS011;13935;55.672;37.764;2023-05-19T09:35:45;11.30;;;6.40;;
26191;SDS011;13935;55.672;37.764;2023-05-19T09:36:48;10.23;;;5.93;;
26191;SDS011;13935;55.672;37.764;2023-05-19T09:37:52;13.65;;;6.38;;
26191;SDS011;13935;55.672;37.764;2023-05-19T09:38:55;11.90;;;6.05;;
26191;SDS011;13935;55.672;37.764;2023-05-19T09:39:58;8.50;;;5.57;;
26191;SDS011;13935;55.672;37.764;2023-05-19T09:41:00;11.10;;;5.78;;
26191;SDS011;13935;55.672;37.764;2023-05-19T09:42:03;10.80;;;5.50;;
26191;SDS011;13935;55.672;37.764;2023-05-19T09:43:15;11.40;;;5.65;;
26191;SDS011;13935;55.672;37.764;2023-05-19T09:44:27;12.05;;;7.00;;
26191;SDS011;13935;55.672;37.764;2023-05-19T09:45:33;11.73;;;5.47;;
26191;SDS011;13935;55.672;37.764;2023-05-19T09:46:35;12.55;;;5.13;;
26191;SDS011;13935;55.672;37.764;2023-05-19T09:47:39;8.10;;;4.13;;
26191;SDS011;13935;55.672;37.764;2023-05-19T09:48:42;9.25;;;4.80;;
26191;SDS011;13935;55.672;37.764;2023-05-19T09:49:44;9.68;;;5.00;;
26191;SDS011;13935;55.672;37.764;2023-05-19T09:50:50;11.27;;;4.95;;
26191;SDS011;13935;55.672;37.764;2023-05-19T09:53:01;8.57;;;4.75;;
26191;SDS011;13935;55.672;37.764;2023-05-19T09:54:04;9.02;;;4.78;;
26191;SDS011;13935;55.672;37.764;2023-05-19T09:55:10;10.95;;;4.85;;
26191;SDS011;13935;55.672;37.764;2023-05-19T09:56:13;9.50;;;4.95;;
26191;SDS011;13935;55.672;37.764;2023-05-19T09:57:15;8.18;;;4.90;;
26191;SDS011;13935;55.672;37.764;2023-05-19T09:58:17;7.85;;;5.15;;
26191;SDS011;13935;55.672;37.764;2023-05-19T09:59:19;10.00;;;4.65;;
26191;SDS011;13935;55.672;37.764;2023-05-19T10:00:25;6.28;;;4.13;;
26191;SDS011;13935;55.672;37.764;2023-05-19T10:01:29;6.18;;;4.18;;
26191;SDS011;13935;55.672;37.764;2023-05-19T10:02:34;8.85;;;4.60;;
26191;SDS011;13935;55.672;37.764;2023-05-19T10:03:42;12.55;;;4.53;;
26191;SDS011;13935;55.672;37.764;2023-05-19T10:04:46;9.68;;;4.50;;
26191;SDS011;13935;55.672;37.764;2023-05-19T10:05:49;7.55;;;4.65;;
26191;SDS011;13935;55.672;37.764;2023-05-19T10:06:53;11.07;;;4.68;;
26191;SDS011;13935;55.672;37.764;2023-05-19T10:08:00;6.95;;;4.38;;
26191;SDS011;13935;55.672;37.764;2023-05-19T10:09:03;11.68;;;4.35;;
26191;SDS011;13935;55.672;37.764;2023-05-19T10:10:10;6.05;;;3.58;;
26191;SDS011;13935;55.672;37.764;2023-05-19T10:11:14;8.77;;;4.10;;
26191;SDS011;13935;55.672;37.764;2023-05-19T10:12:18;9.07;;;3.60;;